createdAt,value
2018-09-26T00:00:22.766Z,68.70
2018-09-26T00:03:05.020Z,68.20
2018-09-26T00:05:33.632Z,68.10
2018-09-26T00:08:02.171Z,67.90
2018-09-26T00:10:30.765Z,69.40
2018-09-26T00:12:59.336Z,70.20
2018-09-26T00:15:27.993Z,69.80
2018-09-26T00:17:56.620Z,68.50
2018-09-26T00:20:25.201Z,68.50
2018-09-26T00:22:53.804Z,68.00
2018-09-26T00:25:22.481Z,68.20
2018-09-26T00:27:51.280Z,68.70
2018-09-26T00:30:19.936Z,69.20
2018-09-26T00:32:48.495Z,70.40
2018-09-26T00:35:17.109Z,70.00
2018-09-26T00:37:45.738Z,69.70
2018-09-26T00:40:14.280Z,69.40
2018-09-26T00:42:43.529Z,69.30
2018-09-26T00:45:12.080Z,68.60
2018-09-26T00:47:41.980Z,69.90
2018-09-26T00:50:10.552Z,69.30
2018-09-26T00:52:39.138Z,69.20
2018-09-26T00:55:08.219Z,69.80
2018-09-26T00:57:36.845Z,70.00
2018-09-26T01:00:05.655Z,69.60
2018-09-26T01:02:34.369Z,69.30
2018-09-26T01:05:03.265Z,69.80
2018-09-26T01:07:32.152Z,70.30
2018-09-26T01:10:00.831Z,70.30
2018-09-26T01:12:29.409Z,70.90
2018-09-26T01:14:58.009Z,70.40
2018-09-26T01:17:26.655Z,70.10
2018-09-26T01:19:55.292Z,69.50
2018-09-26T01:22:23.893Z,68.80
2018-09-26T01:24:53.110Z,68.60
2018-09-26T01:27:21.789Z,68.80
2018-09-26T01:29:50.349Z,69.10
2018-09-26T01:32:19.004Z,69.60
2018-09-26T01:34:47.716Z,69.70
2018-09-26T01:37:16.413Z,70.80
2018-09-26T01:39:45.144Z,70.90
2018-09-26T01:42:13.813Z,71.00
2018-09-26T01:44:42.611Z,70.90
2018-09-26T01:47:11.624Z,70.20
2018-09-26T01:49:40.180Z,70.40
2018-09-26T01:52:08.805Z,70.50
2018-09-26T01:54:37.361Z,71.20
2018-09-26T01:57:05.990Z,70.40
2018-09-26T01:59:34.571Z,70.50
2018-09-26T02:02:03.361Z,70.30
2018-09-26T02:04:31.925Z,70.70
2018-09-26T02:07:00.494Z,71.10
2018-09-26T02:09:29.134Z,71.50
2018-09-26T02:11:57.785Z,71.10
2018-09-26T02:14:26.321Z,71.20
2018-09-26T02:16:54.928Z,71.20
2018-09-26T02:19:23.632Z,70.50
2018-09-26T02:21:52.200Z,69.80
2018-09-26T02:24:20.980Z,70.30
2018-09-26T02:26:49.578Z,70.80
2018-09-26T02:29:18.451Z,71.30
2018-09-26T02:31:47.015Z,71.40
2018-09-26T02:34:15.629Z,72.20
2018-09-26T02:36:44.350Z,71.20
2018-09-26T02:39:12.958Z,71.60
2018-09-26T02:41:41.550Z,71.60
2018-09-26T02:44:10.263Z,72.10
2018-09-26T02:46:38.848Z,71.30
2018-09-26T02:49:07.890Z,71.70
2018-09-26T02:51:37.943Z,71.10
2018-09-26T02:54:07.828Z,71.00
2018-09-26T02:56:36.830Z,71.20
2018-09-26T02:59:05.575Z,71.10
2018-09-26T03:01:34.139Z,71.10
2018-09-26T03:04:03.302Z,70.90
2018-09-26T03:06:31.890Z,72.30
2018-09-26T03:09:01.012Z,72.20
2018-09-26T03:11:29.658Z,70.60
2018-09-26T03:13:58.241Z,69.50
2018-09-26T03:16:26.770Z,70.60
2018-09-26T03:18:55.428Z,70.60
2018-09-26T03:21:24.055Z,70.40
2018-09-26T03:23:52.770Z,70.20
2018-09-26T03:26:21.422Z,69.90
2018-09-26T03:28:50.109Z,69.60
2018-09-26T03:31:18.665Z,69.40
2018-09-26T03:33:47.486Z,69.90
2018-09-26T03:36:16.181Z,70.00
2018-09-26T03:38:44.910Z,70.60
2018-09-26T03:41:13.556Z,71.60
2018-09-26T03:43:42.103Z,71.70
2018-09-26T03:46:10.904Z,70.80
2018-09-26T03:48:39.473Z,69.30
2018-09-26T03:51:08.052Z,69.70
2018-09-26T03:53:36.736Z,69.50
2018-09-26T03:56:05.304Z,69.80
2018-09-26T03:58:33.842Z,69.40
2018-09-26T04:01:02.652Z,68.60
2018-09-26T04:03:31.220Z,68.10
2018-09-26T04:05:59.822Z,68.10
2018-09-26T04:08:28.709Z,69.70
2018-09-26T04:10:57.350Z,70.00
2018-09-26T04:13:26.413Z,69.90
2018-09-26T04:15:55.702Z,69.40
2018-09-26T04:18:26.378Z,69.10
2018-09-26T04:20:55.854Z,69.60
2018-09-26T04:23:25.139Z,70.90
2018-09-26T04:25:53.837Z,70.90
2018-09-26T04:28:22.478Z,69.50
2018-09-26T04:30:51.285Z,68.60
2018-09-26T04:33:20.095Z,69.10
2018-09-26T04:35:48.503Z,68.70
2018-09-26T04:38:17.188Z,69.00
2018-09-26T04:40:45.881Z,69.50
2018-09-26T04:43:14.604Z,69.80
2018-09-26T04:45:43.281Z,69.40
2018-09-26T04:48:12.173Z,69.40
2018-09-26T04:50:40.982Z,70.30
2018-09-26T04:53:09.621Z,69.60
2018-09-26T04:55:38.408Z,69.80
2018-09-26T04:58:07.222Z,71.40
2018-09-26T05:00:35.728Z,70.70
2018-09-26T05:03:04.431Z,70.50
2018-09-26T05:05:33.058Z,69.90
2018-09-26T05:08:01.649Z,69.60
2018-09-26T05:10:30.242Z,70.00
2018-09-26T05:12:58.992Z,69.10
2018-09-26T05:15:27.554Z,68.80
2018-09-26T05:17:56.879Z,69.00
2018-09-26T05:20:25.422Z,70.20
2018-09-26T05:22:54.142Z,70.00
2018-09-26T05:25:22.729Z,70.80
2018-09-26T05:27:51.270Z,71.40
2018-09-26T05:30:19.980Z,70.90
2018-09-26T05:32:48.628Z,70.40
2018-09-26T05:35:17.334Z,70.30
2018-09-26T05:37:45.989Z,70.70
2018-09-26T05:40:14.720Z,70.80
2018-09-26T05:42:43.341Z,70.60
2018-09-26T05:45:12.122Z,70.40
2018-09-26T05:47:40.661Z,71.00
2018-09-26T05:50:09.673Z,70.60
2018-09-26T05:52:38.272Z,72.20
2018-09-26T05:55:07.015Z,72.10
2018-09-26T05:57:35.849Z,72.40
2018-09-26T06:00:04.809Z,72.00
2018-09-26T06:02:33.542Z,72.10
2018-09-26T06:05:02.150Z,72.70
2018-09-26T06:07:30.809Z,72.80
2018-09-26T06:09:59.529Z,74.30
2018-09-26T06:12:28.212Z,74.70
2018-09-26T06:14:56.833Z,75.00
2018-09-26T06:17:25.394Z,75.20
2018-09-26T06:19:53.945Z,75.60
2018-09-26T06:22:22.682Z,76.00
2018-09-26T06:24:51.274Z,76.50
2018-09-26T06:27:19.964Z,76.40
2018-09-26T06:29:49.188Z,76.00
2018-09-26T06:32:17.959Z,76.50
2018-09-26T06:34:46.706Z,76.70
2018-09-26T06:37:15.305Z,76.90
2018-09-26T06:39:44.077Z,76.80
2018-09-26T06:42:12.960Z,76.90
2018-09-26T06:44:41.521Z,76.60
2018-09-26T06:47:10.090Z,76.20
2018-09-26T06:49:38.741Z,75.10
2018-09-26T06:52:07.449Z,73.90
2018-09-26T06:54:36.075Z,72.80
2018-09-26T06:57:04.722Z,72.10
2018-09-26T06:59:33.429Z,72.00
2018-09-26T07:02:02.122Z,72.20
2018-09-26T07:04:30.805Z,71.30
2018-09-26T07:06:59.414Z,69.70
2018-09-26T07:09:27.994Z,66.60
2018-09-26T07:11:56.672Z,64.40
2018-09-26T07:14:25.310Z,63.20
2018-09-26T07:16:54.254Z,62.20
2018-09-26T07:19:25.127Z,62.10
2018-09-26T07:21:53.697Z,61.60
2018-09-26T07:24:22.344Z,61.30
2018-09-26T07:26:51.033Z,60.80
2018-09-26T07:29:19.608Z,60.50
2018-09-26T07:31:48.318Z,60.80
2018-09-26T07:34:17.762Z,60.80
2018-09-26T07:36:47.071Z,60.60
2018-09-26T07:39:15.714Z,60.80
2018-09-26T07:41:44.377Z,60.50
2018-09-26T07:44:13.081Z,26.30
2018-09-26T07:46:41.677Z,25.00
2018-09-26T07:49:10.353Z,24.40
2018-09-26T07:51:39.045Z,25.60
2018-09-26T07:54:07.694Z,25.80
2018-09-26T07:56:36.352Z,24.30
2018-09-26T07:59:05.625Z,24.40
2018-09-26T08:01:34.185Z,24.50
2018-09-26T08:04:02.882Z,25.40
2018-09-26T08:06:31.621Z,24.20
2018-09-26T08:09:01.126Z,23.80
2018-09-26T08:11:29.736Z,25.10
2018-09-26T08:13:58.372Z,25.00
2018-09-26T08:16:27.012Z,24.00
2018-09-26T08:18:55.734Z,24.30
2018-09-26T08:21:24.315Z,24.10
2018-09-26T08:23:53.068Z,24.90
2018-09-26T08:26:21.687Z,24.10
2018-09-26T08:28:50.269Z,23.70
2018-09-26T08:31:19.037Z,23.50
2018-09-26T08:33:47.705Z,24.00
2018-09-26T08:36:16.422Z,22.20
2018-09-26T08:38:45.468Z,23.10
2018-09-26T08:41:14.087Z,22.50
2018-09-26T08:43:42.705Z,22.50
2018-09-26T08:46:11.341Z,22.20
2018-09-26T08:48:39.952Z,22.80
2018-09-26T08:51:08.618Z,22.90
2018-09-26T08:53:37.222Z,23.10
2018-09-26T08:56:05.855Z,21.80
2018-09-26T08:58:34.449Z,22.60
2018-09-26T09:01:03.117Z,22.70
2018-09-26T09:03:31.706Z,23.10
2018-09-26T09:06:00.335Z,22.60
2018-09-26T09:08:28.877Z,22.20
2018-09-26T09:10:57.751Z,23.10
2018-09-26T09:13:26.300Z,23.50
2018-09-26T09:15:54.919Z,21.60
2018-09-26T09:18:23.651Z,22.50
2018-09-26T09:20:52.364Z,22.50
2018-09-26T09:23:21.062Z,22.00
2018-09-26T09:25:49.598Z,22.40
2018-09-26T09:28:18.367Z,23.40
2018-09-26T09:30:47.671Z,23.10
2018-09-26T09:33:16.262Z,23.00
2018-09-26T09:35:44.852Z,23.90
2018-09-26T09:38:13.492Z,21.80
2018-09-26T09:40:42.234Z,22.20
2018-09-26T09:43:10.870Z,24.50
2018-09-26T09:45:39.546Z,23.60
2018-09-26T09:48:08.113Z,23.90
2018-09-26T09:50:36.777Z,24.20
2018-09-26T09:53:06.045Z,24.00
2018-09-26T09:55:34.641Z,23.70
2018-09-26T09:58:03.469Z,23.60
2018-09-26T10:00:37.385Z,23.30
2018-09-26T10:03:06.241Z,24.20
2018-09-26T10:05:34.682Z,23.10
2018-09-26T10:08:03.385Z,22.40
2018-09-26T10:10:31.932Z,23.70
2018-09-26T10:13:00.546Z,23.40
2018-09-26T10:15:29.132Z,23.10
2018-09-26T10:17:57.803Z,24.10
2018-09-26T10:20:26.523Z,24.50
2018-09-26T10:22:55.039Z,24.70
2018-09-26T10:25:23.649Z,23.30
2018-09-26T10:27:52.172Z,24.70
2018-09-26T10:30:21.058Z,24.90
2018-09-26T10:32:49.624Z,24.10
2018-09-26T10:35:18.321Z,25.00
2018-09-26T10:40:15.720Z,25.50
2018-09-26T10:42:44.341Z,26.00
2018-09-26T10:45:13.284Z,25.20
2018-09-26T10:47:41.801Z,26.20
2018-09-26T10:50:11.076Z,26.40
2018-09-26T10:52:39.796Z,25.70
2018-09-26T10:55:08.385Z,24.20
2018-09-26T10:57:37.071Z,24.10
2018-09-26T11:02:33.857Z,24.20
2018-09-26T11:05:02.545Z,25.90
2018-09-26T11:07:31.068Z,24.30
2018-09-26T11:09:59.776Z,24.60
2018-09-26T11:12:28.591Z,25.50
2018-09-26T11:14:57.149Z,25.50
2018-09-26T11:17:25.902Z,25.70
2018-09-26T11:19:54.469Z,25.10
2018-09-26T11:22:23.222Z,25.00
2018-09-26T11:24:51.864Z,26.30
2018-09-26T11:27:21.642Z,25.60
2018-09-26T11:29:50.652Z,25.50
2018-09-26T11:32:19.392Z,25.50
2018-09-26T11:34:47.888Z,24.90
2018-09-26T11:37:16.921Z,25.30
2018-09-26T11:39:45.582Z,25.20
2018-09-26T11:42:14.611Z,24.90
2018-09-26T11:44:43.375Z,24.20
2018-09-26T11:47:12.853Z,25.30
2018-09-26T11:49:41.676Z,25.30
2018-09-26T11:52:10.414Z,24.50
2018-09-26T11:54:38.921Z,24.00
2018-09-26T11:57:07.588Z,25.50
2018-09-26T11:59:36.220Z,25.30
2018-09-26T12:02:04.861Z,24.80
2018-09-26T12:04:33.374Z,25.70
2018-09-26T12:07:02.904Z,25.50
2018-09-26T12:09:31.546Z,25.50
2018-09-26T12:12:00.195Z,25.90
2018-09-26T12:14:28.765Z,25.50
2018-09-26T12:16:57.314Z,25.20
2018-09-26T12:19:26.331Z,24.40
2018-09-26T12:21:56.247Z,24.50
2018-09-26T12:24:24.826Z,24.30
2018-09-26T12:26:53.540Z,24.50
2018-09-26T12:29:22.173Z,24.90
2018-09-26T12:31:50.760Z,25.20
2018-09-26T12:34:19.341Z,26.30
2018-09-26T12:36:47.941Z,26.40
2018-09-26T12:39:16.634Z,26.60
2018-09-26T12:41:45.911Z,26.70
2018-09-26T12:44:14.485Z,27.40
2018-09-26T12:46:43.360Z,25.30
2018-09-26T12:49:11.972Z,25.70
2018-09-26T12:51:40.555Z,25.20
2018-09-26T12:54:09.101Z,25.30
2018-09-26T12:56:38.359Z,25.70
2018-09-26T12:59:07.081Z,25.80
2018-09-26T13:01:36.094Z,26.70
2018-09-26T13:04:04.771Z,26.50
2018-09-26T13:06:33.333Z,26.10
2018-09-26T13:09:01.881Z,26.50
2018-09-26T13:11:30.469Z,26.20
2018-09-26T13:13:59.083Z,26.40
2018-09-26T13:16:28.150Z,26.50
2018-09-26T13:18:56.741Z,25.90
2018-09-26T13:21:25.247Z,26.40
2018-09-26T13:23:53.781Z,26.60
2018-09-26T13:26:23.005Z,26.20
2018-09-26T13:28:51.544Z,26.30
2018-09-26T13:31:19.916Z,27.10
2018-09-26T13:33:48.481Z,26.60
2018-09-26T13:36:17.275Z,26.40
2018-09-26T13:38:46.010Z,26.50
2018-09-26T13:41:14.565Z,25.50
2018-09-26T13:43:44.423Z,26.30
2018-09-26T13:46:12.947Z,26.70
2018-09-26T13:48:42.605Z,26.70
2018-09-26T13:51:11.222Z,26.90
2018-09-26T13:53:39.882Z,27.30
2018-09-26T13:56:09.206Z,27.30
2018-09-26T13:58:37.749Z,26.80
2018-09-26T14:01:06.531Z,27.10
2018-09-26T14:03:35.339Z,26.50
2018-09-26T14:06:04.063Z,25.80
2018-09-26T14:08:32.718Z,25.70
2018-09-26T14:11:01.313Z,26.60
2018-09-26T14:13:29.853Z,26.80
2018-09-26T14:15:58.441Z,26.80
2018-09-26T14:18:27.758Z,25.80
2018-09-26T14:20:56.392Z,26.10
2018-09-26T14:23:25.000Z,26.10
2018-09-26T14:25:53.552Z,25.30
2018-09-26T14:28:22.238Z,24.30
2018-09-26T14:30:50.919Z,24.20
2018-09-26T14:33:19.603Z,24.80
2018-09-26T14:35:48.139Z,25.30
2018-09-26T14:38:16.960Z,25.10
2018-09-26T14:40:45.452Z,24.70
2018-09-26T14:43:14.237Z,25.30
2018-09-26T14:45:42.803Z,24.20
2018-09-26T14:48:11.305Z,23.40
2018-09-26T14:50:39.895Z,23.30
2018-09-26T14:53:08.506Z,23.40
2018-09-26T14:55:37.050Z,23.30
2018-09-26T14:58:05.815Z,24.00
2018-09-26T15:00:34.284Z,23.70
2018-09-26T15:03:03.621Z,23.10
2018-09-26T15:05:32.173Z,23.20
2018-09-26T15:08:01.328Z,23.60
2018-09-26T15:10:30.163Z,23.10
2018-09-26T15:12:58.970Z,22.70
2018-09-26T15:15:27.627Z,23.30
2018-09-26T15:17:56.339Z,23.00
2018-09-26T15:20:25.021Z,23.60
2018-09-26T15:22:53.641Z,24.10
2018-09-26T15:25:22.277Z,23.70
2018-09-26T15:27:50.916Z,23.30
2018-09-26T15:30:19.504Z,22.90
2018-09-26T15:32:48.114Z,23.00
2018-09-26T15:35:16.716Z,23.30
2018-09-26T15:37:45.353Z,23.10
2018-09-26T15:40:14.121Z,23.70
2018-09-26T15:42:42.686Z,25.10
2018-09-26T15:45:11.938Z,25.30
2018-09-26T15:47:40.593Z,24.80
2018-09-26T15:50:10.109Z,24.20
2018-09-26T15:52:38.774Z,24.00
2018-09-26T15:55:07.575Z,24.30
2018-09-26T15:57:36.501Z,24.60
2018-09-26T16:00:05.340Z,25.00
2018-09-26T16:02:33.841Z,25.10
2018-09-26T16:05:02.533Z,25.20
2018-09-26T16:07:31.216Z,25.10
2018-09-26T16:09:59.726Z,25.20
2018-09-26T16:12:28.364Z,25.10
2018-09-26T16:14:57.067Z,25.40
2018-09-26T16:17:25.599Z,25.60
2018-09-26T16:19:54.680Z,25.30
2018-09-26T16:22:23.262Z,25.30
2018-09-26T16:24:51.776Z,25.50
2018-09-26T16:27:20.448Z,26.00
2018-09-26T16:29:49.024Z,26.50
2018-09-26T16:32:18.272Z,27.40
2018-09-26T16:34:46.772Z,27.80
2018-09-26T16:37:15.905Z,27.50
2018-09-26T16:39:44.806Z,27.80
2018-09-26T16:42:13.397Z,28.10
2018-09-26T16:44:42.093Z,27.90
2018-09-26T16:47:11.691Z,28.30
2018-09-26T16:49:40.433Z,28.40
2018-09-26T16:52:09.434Z,28.50
2018-09-26T16:54:37.973Z,28.80
2018-09-26T16:57:07.112Z,28.80
2018-09-26T16:59:35.656Z,28.70
2018-09-26T17:02:04.278Z,28.90
2018-09-26T17:04:32.835Z,28.20
2018-09-26T17:07:01.372Z,28.00
2018-09-26T17:09:29.909Z,28.10
2018-09-26T17:11:58.562Z,28.00
2018-09-26T17:14:27.288Z,28.50
2018-09-26T17:16:55.760Z,28.50
2018-09-26T17:19:24.412Z,28.60
2018-09-26T17:21:53.005Z,29.00
2018-09-26T17:24:21.710Z,28.90
2018-09-26T17:26:50.281Z,28.80
2018-09-26T17:29:18.841Z,28.90
2018-09-26T17:31:47.456Z,29.10
2018-09-26T17:34:16.019Z,29.60
2018-09-26T17:36:44.667Z,29.70
2018-09-26T17:39:13.474Z,29.70
2018-09-26T17:41:42.736Z,30.00
2018-09-26T17:44:11.403Z,30.00
2018-09-26T17:46:39.924Z,29.90
2018-09-26T17:49:08.662Z,30.00
2018-09-26T17:51:37.198Z,30.80
2018-09-26T17:54:06.093Z,30.30
2018-09-26T17:56:34.817Z,31.30
2018-09-26T17:59:03.584Z,30.40
2018-09-26T18:01:32.145Z,31.00
2018-09-26T18:04:00.672Z,30.70
2018-09-26T18:06:29.377Z,30.60
2018-09-26T18:08:57.967Z,31.30
2018-09-26T18:11:26.813Z,31.40
2018-09-26T18:13:55.574Z,31.80
2018-09-26T18:16:24.151Z,31.60
2018-09-26T18:18:52.847Z,31.50
2018-09-26T18:21:21.685Z,32.50
2018-09-26T18:23:50.227Z,32.70
2018-09-26T18:26:18.913Z,34.00
2018-09-26T18:28:47.563Z,33.50
2018-09-26T18:31:16.217Z,33.80
2018-09-26T18:33:45.001Z,37.10
2018-09-26T18:36:13.760Z,37.00
2018-09-26T18:38:42.477Z,37.50
2018-09-26T18:41:11.185Z,37.70
2018-09-26T18:43:39.745Z,39.20
2018-09-26T18:46:08.428Z,39.10
2018-09-26T18:48:37.110Z,39.00
2018-09-26T18:51:05.945Z,39.90
2018-09-26T18:53:34.650Z,38.10
2018-09-26T18:56:03.234Z,39.90
2018-09-26T18:58:31.780Z,40.60
2018-09-26T19:01:00.633Z,41.50
2018-09-26T19:03:29.240Z,40.50
2018-09-26T19:05:58.105Z,41.20
2018-09-26T19:08:26.632Z,41.40
2018-09-26T19:10:55.389Z,44.00
2018-09-26T19:13:23.954Z,45.40
2018-09-26T19:15:53.507Z,45.50
2018-09-26T19:18:22.093Z,43.90
2018-09-26T19:20:50.620Z,44.00
2018-09-26T19:23:19.282Z,43.70
2018-09-26T19:25:48.394Z,44.20
2018-09-26T19:28:17.098Z,44.80
2018-09-26T19:30:45.614Z,45.00
2018-09-26T19:33:14.361Z,45.30
2018-09-26T19:35:43.086Z,47.40
2018-09-26T19:38:11.768Z,46.60
2018-09-26T19:40:40.768Z,46.90
2018-09-26T19:43:09.393Z,48.20
2018-09-26T19:45:37.943Z,47.70
2018-09-26T19:48:07.177Z,47.60
2018-09-26T19:50:35.677Z,48.80
2018-09-26T19:53:04.743Z,48.60
2018-09-26T19:55:33.567Z,47.40
2018-09-26T19:58:02.190Z,47.50
2018-09-26T20:00:30.797Z,47.40
2018-09-26T20:02:59.502Z,48.40
2018-09-26T20:05:28.225Z,48.80
2018-09-26T20:07:56.966Z,47.50
2018-09-26T20:10:25.471Z,49.80
2018-09-26T20:12:54.776Z,50.50
2018-09-26T20:15:24.270Z,49.40
2018-09-26T20:17:52.892Z,49.70
2018-09-26T20:20:21.609Z,48.80
2018-09-26T20:22:50.354Z,50.20
2018-09-26T20:25:18.881Z,51.80
2018-09-26T20:27:47.478Z,51.70
2018-09-26T20:30:16.119Z,50.70
2018-09-26T20:32:44.698Z,50.80
2018-09-26T20:35:13.427Z,52.80
2018-09-26T20:37:42.273Z,54.90
2018-09-26T20:40:10.830Z,55.20
2018-09-26T20:42:40.006Z,53.60
2018-09-26T20:45:08.656Z,53.90
2018-09-26T20:47:37.164Z,53.40
2018-09-26T20:50:06.092Z,53.30
2018-09-26T20:52:34.605Z,54.20
2018-09-26T20:55:03.209Z,52.50
2018-09-26T20:57:31.894Z,52.30
2018-09-26T21:00:00.431Z,52.40
2018-09-26T21:02:28.949Z,51.90
2018-09-26T21:04:57.478Z,54.50
2018-09-26T21:07:26.133Z,54.60
2018-09-26T21:09:54.821Z,54.80
2018-09-26T21:12:23.446Z,69.00
2018-09-26T21:14:52.054Z,69.60
2018-09-26T21:17:20.638Z,69.60
2018-09-26T21:19:49.342Z,70.10
2018-09-26T21:22:17.923Z,70.10
2018-09-26T21:24:46.502Z,70.30
2018-09-26T21:27:15.063Z,71.10
2018-09-26T21:29:43.625Z,70.70
2018-09-26T21:32:12.954Z,70.90
2018-09-26T21:34:41.463Z,71.00
2018-09-26T21:37:10.912Z,71.20
2018-09-26T21:39:39.514Z,70.90
2018-09-26T21:42:08.161Z,70.70
2018-09-26T21:44:36.689Z,70.50
2018-09-26T21:47:05.189Z,70.90
2018-09-26T21:49:33.719Z,71.10
2018-09-26T21:52:02.241Z,71.30
2018-09-26T21:54:30.776Z,71.70
2018-09-26T21:56:59.316Z,71.90
2018-09-26T21:59:27.928Z,71.60
2018-09-26T22:01:56.882Z,71.10
2018-09-26T22:04:26.510Z,71.90
2018-09-26T22:06:55.527Z,71.80
2018-09-26T22:09:25.493Z,71.70
2018-09-26T22:11:54.920Z,71.90
2018-09-26T22:14:24.473Z,71.40
2018-09-26T22:16:53.256Z,71.60
2018-09-26T22:19:23.350Z,72.60
2018-09-26T22:21:52.681Z,72.60
2018-09-26T22:24:21.535Z,71.90
2018-09-26T22:26:50.484Z,71.90
2018-09-26T22:29:19.913Z,72.00
2018-09-26T22:31:48.889Z,71.80
2018-09-26T22:34:18.293Z,71.80
2018-09-26T22:36:48.581Z,71.70
2018-09-26T22:39:17.533Z,72.10
2018-09-26T22:41:47.342Z,71.80
2018-09-26T22:44:16.226Z,72.30
2018-09-26T22:46:45.620Z,72.20
2018-09-26T22:49:15.037Z,72.30
2018-09-26T22:51:44.501Z,72.20
2018-09-26T22:54:14.121Z,72.40
2018-09-26T22:56:44.168Z,72.50
2018-09-26T22:59:13.057Z,72.60
2018-09-26T23:01:41.841Z,72.50
2018-09-26T23:04:10.569Z,72.50
2018-09-26T23:06:39.617Z,72.70
2018-09-26T23:09:10.634Z,72.40
2018-09-26T23:11:40.672Z,73.10
2018-09-26T23:14:10.517Z,73.60
2018-09-26T23:16:39.406Z,73.60
2018-09-26T23:19:08.902Z,74.20
2018-09-26T23:21:38.656Z,74.90
2018-09-26T23:24:07.724Z,75.00
2018-09-26T23:26:37.208Z,74.40
2018-09-26T23:29:07.185Z,74.20
2018-09-26T23:31:36.013Z,74.20
2018-09-26T23:34:05.027Z,74.00
2018-09-26T23:36:34.471Z,74.60
2018-09-26T23:39:05.669Z,74.80
2018-09-26T23:41:36.650Z,74.80
2018-09-26T23:44:05.719Z,74.70
2018-09-26T23:46:35.272Z,74.60
2018-09-26T23:49:04.563Z,74.60
2018-09-26T23:51:34.920Z,74.90
2018-09-26T23:54:05.644Z,74.70
2018-09-26T23:56:34.683Z,74.80
2018-09-26T23:59:04.188Z,75.00
